Pagina principale
METAR-TAF:

METAR-TAF

Aeroporti :

Ahvaz, Iran

latitudine: 31-20N, longitudine: 048-40E, altezza: 20 m

Osservazione

Il bollettino è stato emesso 52 minuti fa, alle 22:00 UTC
Vento 8 kt da ovest/nord-ovest
Temperature 35°C
Umidità 17%
Pressione 1001 hPa
Visibilità 10 km o più
nessuna nube inferiore a 1500 m e nessun cumulonembo

METAR: OIAW 292200Z 30008KT CAVOK 35/06 Q1001

Ora: 03:22 (22:52 UTC)

Previsione

Il bollettino è stato emesso 5 ore e 2 minuti fa, alle 17:50 UTC
Previsione valida dal 29 alle 18 UTC al 30 alle 24 UTC
Vento 10 kt da ovest/nord-ovest
Visibilità: 7000 m
Temporaneamente
dal 30 alle 09 UTC al 30 alle 16 UTC
Vento 15 kt da nord-ovest con raffiche fino a 30 kt
Visibilità: 3000 m

TAF: OIAW 291750Z 2918/3024 29010KT 7000 NSC TEMPO 3009/3016 32015G30KT 3000 DU/SA NSC

Osservazioni e previsioni meteorologiche di più di 4000 aeroporti (messaggi METAR e TAF).

Le stazioni disponibili sono rappresentate dai dischi gialli e rossi sulla carta.

Puntare il mouse per vedere il nome della stazione.

Clicca sopra per visualizzare le osservazioni e previsioni meteorologiche.

Per cambiare la mappa : fare clic sui pulsanti verdi con una croce nera per ingrandire, il pulsante verde con un trattino per diminuire, o sulla freccia verde per le mappe adiacenti.


METAR-TAF: